Inwood, Canada
Current Conditions -  °F | °C
As of 2:00 AM on Saturday 20 Dec 2014 (Local Time) from CYWG Reporting Station
Haze Haze  
Wind Chill: 21°   Ceiling: 900
Heat Index: 27°   Visibility: 4mi
Dew Point: 23°   Wind: 5mph
Humidity: 86%   Direction: 190°S
Pressure: 30.01"   Gusts: NA
Location:  50.5°N, 97.5°W
Report Text: CYWG 200800Z 19004KT 4SM BR OVC009 M03/M05 A3001 RMK ST8 SLP178
Loading
Personal Weather Stations






























Interactive Weather Map New forecast layout! Learn more

10-Day Weather Forecast

Advertisements
Track Severe Weather on mobile